createdAt,value
2016-04-25T00:00:12.903Z,0
2016-04-25T00:01:12.937Z,0
2016-04-25T00:02:12.971Z,0
2016-04-25T00:03:12.988Z,0
2016-04-25T00:04:13.007Z,0
2016-04-25T00:05:13.011Z,0
2016-04-25T00:06:13.029Z,0
2016-04-25T00:07:13.031Z,0
2016-04-25T00:08:13.080Z,0
2016-04-25T00:09:13.082Z,0
2016-04-25T00:10:13.118Z,0
2016-04-25T00:11:13.121Z,0
2016-04-25T00:12:13.248Z,0
2016-04-25T00:13:13.187Z,0
2016-04-25T00:14:13.018Z,0
2016-04-25T00:15:13.193Z,0
2016-04-25T00:16:13.212Z,0
2016-04-25T00:17:13.246Z,0
2016-04-25T00:18:13.264Z,0
2016-04-25T00:19:13.266Z,0
2016-04-25T00:20:14.987Z,0
2016-04-25T00:21:13.304Z,0
2016-04-25T00:22:13.336Z,0
2016-04-25T00:23:13.329Z,0
2016-04-25T00:24:13.364Z,0
2016-04-25T00:25:13.382Z,0
2016-04-25T00:26:13.384Z,0
2016-04-25T00:27:15.215Z,0
2016-04-25T00:28:13.437Z,0
2016-04-25T00:29:13.439Z,0
2016-04-25T00:30:13.490Z,0
2016-04-25T00:31:13.476Z,0
2016-04-25T00:32:13.511Z,0
2016-04-25T00:33:13.529Z,0
2016-04-25T00:34:13.531Z,0
2016-04-25T00:35:13.565Z,0
2016-04-25T00:36:13.583Z,0
2016-04-25T00:37:13.587Z,0
2016-04-25T00:38:13.620Z,0
2016-04-25T00:39:13.639Z,0
2016-04-25T00:40:13.641Z,0
2016-04-25T00:41:13.660Z,0
2016-04-25T00:42:14.990Z,0
2016-04-25T00:43:13.541Z,0
2016-04-25T00:44:13.699Z,0
2016-04-25T00:45:13.733Z,0
2016-04-25T00:46:13.751Z,0
2016-04-25T00:47:13.770Z,0
2016-04-25T00:48:13.788Z,0
2016-04-25T00:49:13.822Z,0
2016-04-25T00:50:13.824Z,0
2016-04-25T00:51:13.843Z,0
2016-04-25T00:52:13.860Z,0
2016-04-25T00:53:13.880Z,0
2016-04-25T00:54:13.898Z,0
2016-04-25T00:55:13.760Z,0
2016-04-25T00:56:13.934Z,0
2016-04-25T00:57:13.813Z,0
2016-04-25T00:58:14.065Z,0
2016-04-25T00:59:13.990Z,0
2016-04-25T01:00:14.007Z,0
2016-04-25T01:01:14.025Z,0
2016-04-25T01:02:14.044Z,0
2016-04-25T01:03:14.063Z,0
2016-04-25T01:04:14.081Z,0
2016-04-25T01:05:14.100Z,0
2016-04-25T01:06:14.117Z,0
2016-04-25T01:07:14.136Z,0
2016-04-25T01:08:14.154Z,0
2016-04-25T01:09:14.173Z,0
2016-04-25T01:10:14.191Z,0
2016-04-25T01:11:14.208Z,0
2016-04-25T01:12:15.368Z,0
2016-04-25T01:13:14.339Z,0
2016-04-25T01:14:14.280Z,0
2016-04-25T01:15:14.282Z,0
2016-04-25T01:16:14.144Z,0
2016-04-25T01:17:14.319Z,0
2016-04-25T01:18:14.322Z,0
2016-04-25T01:19:14.340Z,0
2016-04-25T01:20:14.374Z,0
2016-04-25T01:21:14.376Z,0
2016-04-25T01:22:14.411Z,0
2016-04-25T01:23:14.429Z,0
2016-04-25T01:24:14.431Z,0
2016-04-25T01:25:14.465Z,0
2016-04-25T01:26:14.484Z,0
2016-04-25T01:27:14.002Z,0
2016-04-25T01:28:17.177Z,0
2016-04-25T01:29:14.539Z,0
2016-04-25T01:30:14.573Z,0
2016-04-25T01:31:14.560Z,0
2016-04-25T01:32:14.578Z,0
2016-04-25T01:33:14.612Z,0
2016-04-25T01:34:14.615Z,0
2016-04-25T01:35:14.648Z,0
2016-04-25T01:36:14.667Z,0
2016-04-25T01:37:14.670Z,0
2016-04-25T01:38:14.703Z,0
2016-04-25T01:39:14.706Z,0
2016-04-25T01:40:14.740Z,0
2016-04-25T01:41:14.759Z,0
2016-04-25T01:42:14.761Z,0
2016-04-25T01:43:15.857Z,0
2016-04-25T01:44:14.860Z,0
2016-04-25T01:45:14.816Z,0
2016-04-25T01:46:14.819Z,0
2016-04-25T01:47:14.838Z,0
2016-04-25T01:48:14.855Z,0
2016-04-25T01:49:14.889Z,0
2016-04-25T01:50:14.892Z,0
2016-04-25T01:51:14.926Z,0
2016-04-25T01:52:14.944Z,0
2016-04-25T01:53:15.057Z,0
2016-04-25T01:54:14.966Z,0
2016-04-25T01:55:14.999Z,0
2016-04-25T01:56:15.002Z,0
2016-04-25T01:57:14.832Z,0
2016-04-25T01:58:15.476Z,0
2016-04-25T01:59:15.057Z,0
2016-04-25T02:00:15.668Z,0
2016-04-25T02:01:15.266Z,0
2016-04-25T02:02:15.253Z,0
2016-04-25T02:03:15.115Z,0
2016-04-25T02:04:15.148Z,0
2016-04-25T02:05:15.167Z,0
2016-04-25T02:06:15.185Z,0
2016-04-25T02:07:14.470Z,0
2016-04-25T02:08:15.237Z,0
2016-04-25T02:09:15.256Z,0
2016-04-25T02:10:15.258Z,0
2016-04-25T02:11:15.371Z,0
2016-04-25T02:12:16.451Z,0
2016-04-25T02:13:15.422Z,0
2016-04-25T02:14:15.316Z,0
2016-04-25T02:15:15.366Z,0
2016-04-25T02:16:15.369Z,0
2016-04-25T02:17:15.386Z,0
2016-04-25T02:18:15.389Z,0
2016-04-25T02:19:15.501Z,0
2016-04-25T02:20:15.504Z,0
2016-04-25T02:21:15.539Z,0
2016-04-25T02:22:15.478Z,0
2016-04-25T02:23:15.480Z,0
2016-04-25T02:24:15.499Z,0
2016-04-25T02:25:15.517Z,0
2016-04-25T02:26:15.521Z,0
2016-04-25T02:27:15.555Z,0
2016-04-25T02:28:16.368Z,0
2016-04-25T02:29:15.576Z,0
2016-04-25T02:30:15.609Z,0
2016-04-25T02:31:15.627Z,0
2016-04-25T02:32:15.646Z,0
2016-04-25T02:33:15.665Z,0
2016-04-25T02:34:15.683Z,0
2016-04-25T02:35:15.685Z,0
2016-04-25T02:36:15.703Z,0
2016-04-25T02:37:15.753Z,0
2016-04-25T02:38:15.739Z,0
2016-04-25T02:39:15.602Z,0
2016-04-25T02:40:15.918Z,0
2016-04-25T02:41:15.858Z,0
2016-04-25T02:42:15.814Z,0
2016-04-25T02:43:15.659Z,0
2016-04-25T02:44:15.834Z,0
2016-04-25T02:45:15.869Z,0
2016-04-25T02:46:15.887Z,0
2016-04-25T02:47:15.905Z,0
2016-04-25T02:48:16.048Z,0
2016-04-25T02:49:15.926Z,0
2016-04-25T02:50:15.944Z,0
2016-04-25T02:51:15.963Z,0
2016-04-25T02:52:15.981Z,0
2016-04-25T02:53:15.999Z,0
2016-04-25T02:54:16.018Z,0
2016-04-25T02:55:16.035Z,0
2016-04-25T02:56:16.055Z,0
2016-04-25T02:57:16.072Z,0
2016-04-25T02:58:16.060Z,0
2016-04-25T02:59:16.110Z,0
2016-04-25T03:00:16.127Z,0
2016-04-25T03:01:16.146Z,0
2016-04-25T03:02:16.179Z,0
2016-04-25T03:03:16.168Z,0
2016-04-25T03:04:16.185Z,0
2016-04-25T03:05:16.234Z,0
2016-04-25T03:06:16.222Z,0
2016-04-25T03:07:16.256Z,0
2016-04-25T03:08:16.101Z,0
2016-04-25T03:09:16.276Z,0
2016-04-25T03:10:16.295Z,0
2016-04-25T03:11:16.329Z,0
2016-04-25T03:12:16.331Z,0
2016-04-25T03:13:16.522Z,0
2016-04-25T03:14:16.368Z,0
2016-04-25T03:15:16.386Z,0
2016-04-25T03:16:16.405Z,0
2016-04-25T03:17:16.423Z,0
2016-04-25T03:18:16.441Z,0
2016-04-25T03:19:16.445Z,0
2016-04-25T03:20:16.478Z,0
2016-04-25T03:21:16.496Z,0
2016-04-25T03:22:16.499Z,0
2016-04-25T03:23:16.517Z,0
2016-04-25T03:24:16.535Z,0
2016-04-25T03:25:16.569Z,0
2016-04-25T03:26:16.572Z,0
2016-04-25T03:27:16.607Z,0
2016-04-25T03:28:17.874Z,0
2016-04-25T03:29:16.643Z,0
2016-04-25T03:30:16.645Z,0
2016-04-25T03:31:16.663Z,0
2016-04-25T03:32:16.683Z,0
2016-04-25T03:33:16.700Z,0
2016-04-25T03:34:16.563Z,0
2016-04-25T03:35:16.721Z,0
2016-04-25T03:36:16.756Z,0
2016-04-25T03:37:16.805Z,0
2016-04-25T03:38:16.776Z,0
2016-04-25T03:39:16.795Z,0
2016-04-25T03:40:16.812Z,0
2016-04-25T03:41:16.831Z,0
2016-04-25T03:42:16.834Z,0
2016-04-25T03:43:17.696Z,0
2016-04-25T03:44:16.886Z,0
2016-04-25T03:45:16.905Z,0
2016-04-25T03:46:16.954Z,0
2016-04-25T03:47:16.957Z,0
2016-04-25T03:48:16.944Z,0
2016-04-25T03:49:16.978Z,0
2016-04-25T03:50:16.997Z,0
2016-04-25T03:51:16.999Z,0
2016-04-25T03:52:17.017Z,0
2016-04-25T03:53:17.020Z,0
2016-04-25T03:54:17.038Z,0
2016-04-25T03:55:17.072Z,0
2016-04-25T03:56:17.091Z,0
2016-04-25T03:57:17.109Z,0
2016-04-25T03:58:17.283Z,0
2016-04-25T03:59:17.129Z,0
2016-04-25T04:00:17.179Z,0
2016-04-25T04:01:17.167Z,0
2016-04-25T04:02:17.201Z,0
2016-04-25T04:03:17.218Z,0
2016-04-25T04:04:17.221Z,0
2016-04-25T04:05:17.240Z,0
2016-04-25T04:06:17.258Z,0
2016-04-25T04:07:17.276Z,0
2016-04-25T04:08:17.295Z,0
2016-04-25T04:09:17.313Z,0
2016-04-25T04:10:17.332Z,0
2016-04-25T04:11:17.334Z,0
2016-04-25T04:12:17.352Z,0
2016-04-25T04:13:17.480Z,0
2016-04-25T04:14:17.405Z,0
2016-04-25T04:15:17.407Z,0
2016-04-25T04:16:17.426Z,0
2016-04-25T04:17:17.459Z,0
2016-04-25T04:18:17.462Z,0
2016-04-25T04:19:17.481Z,0
2016-04-25T04:20:17.499Z,0
2016-04-25T04:21:17.034Z,0
2016-04-25T04:22:17.301Z,0
2016-04-25T04:23:18.320Z,0
2016-04-25T04:24:17.588Z,0
2016-04-25T04:25:17.591Z,0
2016-04-25T04:26:17.593Z,0
2016-04-25T04:27:17.612Z,0
2016-04-25T04:28:17.489Z,0
2016-04-25T04:29:18.367Z,0
2016-04-25T04:30:17.666Z,0
2016-04-25T04:31:17.685Z,0
2016-04-25T04:32:17.702Z,0
2016-04-25T04:33:17.706Z,0
2016-04-25T04:34:17.724Z,0
2016-04-25T04:35:17.743Z,0
2016-04-25T04:36:17.760Z,0
2016-04-25T04:37:17.795Z,5
2016-04-25T04:38:17.798Z,0
2016-04-25T04:39:17.815Z,0
2016-04-25T04:40:17.834Z,0
2016-04-25T04:41:17.837Z,0
2016-04-25T04:42:17.887Z,0
2016-04-25T04:43:18.014Z,0
2016-04-25T04:44:17.907Z,0
2016-04-25T04:45:17.909Z,0
2016-04-25T04:46:17.913Z,0
2016-04-25T04:47:17.947Z,5
2016-04-25T04:48:17.965Z,5
2016-04-25T04:49:18.014Z,5
2016-04-25T04:50:18.001Z,5
2016-04-25T04:51:18.020Z,5
2016-04-25T04:52:18.023Z,5
2016-04-25T04:53:18.041Z,5
2016-04-25T04:54:18.059Z,5
2016-04-25T04:55:18.093Z,5
2016-04-25T04:56:18.111Z,5
2016-04-25T04:57:18.114Z,5
2016-04-25T04:58:18.460Z,5
2016-04-25T04:59:18.135Z,5
2016-04-25T05:00:18.169Z,5
2016-04-25T05:01:18.188Z,5
2016-04-25T05:02:17.518Z,5
2016-04-25T05:03:18.240Z,5
2016-04-25T05:04:18.243Z,5
2016-04-25T05:05:18.261Z,5
2016-04-25T05:06:18.279Z,5
2016-04-25T05:07:18.282Z,5
2016-04-25T05:08:18.299Z,5
2016-04-25T05:09:18.396Z,5
2016-04-25T05:10:18.180Z,5
2016-04-25T05:11:18.371Z,5
2016-04-25T05:12:18.425Z,5
2016-04-25T05:13:18.158Z,5
2016-04-25T05:14:18.878Z,5
2016-04-25T05:15:18.440Z,5
2016-04-25T05:16:18.658Z,5
2016-04-25T05:17:18.542Z,5
2016-04-25T05:18:18.733Z,5
2016-04-25T05:19:18.766Z,5
2016-04-25T05:20:18.801Z,10
2016-04-25T05:21:18.663Z,10
2016-04-25T05:22:18.829Z,5
2016-04-25T05:23:18.760Z,5
2016-04-25T05:24:18.894Z,5
2016-04-25T05:25:18.917Z,5
2016-04-25T05:26:18.941Z,5
2016-04-25T05:27:18.962Z,5
2016-04-25T05:28:18.842Z,10
2016-04-25T05:29:19.111Z,10
2016-04-25T05:30:19.024Z,10
2016-04-25T05:31:19.028Z,10
2016-04-25T05:32:19.062Z,10
2016-04-25T05:33:19.066Z,10
2016-04-25T05:34:19.100Z,10
2016-04-25T05:35:18.963Z,10
2016-04-25T05:36:19.138Z,10
2016-04-25T05:37:19.142Z,10
2016-04-25T05:38:19.019Z,10
2016-04-25T05:39:19.164Z,10
2016-04-25T05:40:19.183Z,10
2016-04-25T05:41:19.201Z,10
2016-04-25T05:42:19.219Z,10
2016-04-25T05:43:19.598Z,15
2016-04-25T05:44:19.365Z,10
2016-04-25T05:45:19.274Z,15
2016-04-25T05:46:19.308Z,15
2016-04-25T05:47:19.311Z,15
2016-04-25T05:48:19.345Z,10
2016-04-25T05:49:19.364Z,10
2016-04-25T05:50:19.366Z,10
2016-04-25T05:51:19.383Z,15
2016-04-25T05:52:19.419Z,10
2016-04-25T05:53:19.421Z,10
2016-04-25T05:54:19.454Z,10
2016-04-25T05:55:19.442Z,15
2016-04-25T05:56:19.476Z,15
2016-04-25T05:57:19.479Z,15
2016-04-25T05:58:20.216Z,15
2016-04-25T05:59:19.405Z,10
2016-04-25T06:00:19.518Z,15
2016-04-25T06:01:19.535Z,10
2016-04-25T06:02:19.586Z,10
2016-04-25T06:03:19.588Z,10
2016-04-25T06:04:19.606Z,10
2016-04-25T06:05:19.610Z,10
2016-04-25T06:06:19.659Z,15
2016-04-25T06:07:19.646Z,20
2016-04-25T06:08:19.665Z,20
2016-04-25T06:09:19.682Z,15
2016-04-25T06:10:19.701Z,15
2016-04-25T06:11:19.734Z,15
2016-04-25T06:12:19.737Z,15
2016-04-25T06:13:20.740Z,15
2016-04-25T06:14:19.759Z,15
2016-04-25T06:15:19.777Z,15
2016-04-25T06:16:19.811Z,10
2016-04-25T06:17:19.829Z,10
2016-04-25T06:18:19.831Z,10
2016-04-25T06:19:19.866Z,15
2016-04-25T06:20:19.900Z,20
2016-04-25T06:21:19.886Z,15
2016-04-25T06:22:19.937Z,15
2016-04-25T06:23:19.800Z,20
2016-04-25T06:24:19.973Z,20
2016-04-25T06:25:19.976Z,20
2016-04-25T06:26:19.979Z,20
2016-04-25T06:27:19.998Z,20
2016-04-25T06:28:29.656Z,20
2016-04-25T06:29:21.956Z,15
2016-04-25T06:30:20.928Z,15
2016-04-25T06:31:20.071Z,15
2016-04-25T06:32:20.089Z,20
2016-04-25T06:33:20.108Z,25
2016-04-25T06:34:20.141Z,20
2016-04-25T06:35:20.161Z,20
2016-04-25T06:36:20.178Z,20
2016-04-25T06:37:20.165Z,20
2016-04-25T06:38:20.200Z,20
2016-04-25T06:39:20.217Z,25
2016-04-25T06:40:20.236Z,25
2016-04-25T06:41:20.238Z,20
2016-04-25T06:42:20.272Z,20
2016-04-25T06:43:21.071Z,25
2016-04-25T06:44:20.294Z,25
2016-04-25T06:45:20.312Z,25
2016-04-25T06:46:20.346Z,25
2016-04-25T06:47:20.364Z,25
2016-04-25T06:48:20.383Z,25
2016-04-25T06:49:20.384Z,25
2016-04-25T06:50:20.388Z,25
2016-04-25T06:51:20.265Z,20
2016-04-25T06:52:20.440Z,20
2016-04-25T06:53:20.458Z,20
2016-04-25T06:54:20.477Z,15
2016-04-25T06:55:20.479Z,15
2016-04-25T06:56:20.498Z,10
2016-04-25T06:57:20.531Z,5
2016-04-25T06:58:22.159Z,5
2016-04-25T06:59:21.693Z,5
2016-04-25T07:00:20.571Z,10
2016-04-25T07:01:20.605Z,15
2016-04-25T07:02:20.607Z,10
2016-04-25T07:03:20.625Z,10
2016-04-25T07:04:20.644Z,5
2016-04-25T07:05:20.694Z,5
2016-04-25T07:06:20.681Z,10
2016-04-25T07:07:20.699Z,15
2016-04-25T07:08:20.717Z,20
2016-04-25T07:09:20.736Z,20
2016-04-25T07:10:20.754Z,20
2016-04-25T07:11:20.772Z,20
2016-04-25T07:12:20.791Z,20
2016-04-25T07:13:21.027Z,25
2016-04-25T07:14:20.530Z,25
2016-04-25T07:15:20.846Z,25
2016-04-25T07:16:20.863Z,25
2016-04-25T07:17:20.882Z,25
2016-04-25T07:18:20.901Z,20
2016-04-25T07:19:20.904Z,25
2016-04-25T07:20:20.937Z,25
2016-04-25T07:21:20.940Z,25
2016-04-25T07:22:20.958Z,25
2016-04-25T07:23:20.976Z,25
2016-04-25T07:24:20.995Z,25
2016-04-25T07:25:21.029Z,30
2016-04-25T07:26:21.031Z,25
2016-04-25T07:27:21.065Z,25
2016-04-25T07:28:20.678Z,25
2016-04-25T07:29:20.883Z,25
2016-04-25T07:30:21.105Z,25
2016-04-25T07:31:21.123Z,25
2016-04-25T07:32:21.142Z,30
2016-04-25T07:33:21.159Z,25
2016-04-25T07:34:21.178Z,25
2016-04-25T07:35:21.181Z,30
2016-04-25T07:36:21.230Z,30
2016-04-25T07:37:21.233Z,30
2016-04-25T07:38:21.235Z,25
2016-04-25T07:39:21.270Z,15
2016-04-25T07:40:21.272Z,15
2016-04-25T07:41:21.291Z,10
2016-04-25T07:42:21.340Z,10
2016-04-25T07:43:21.671Z,10
2016-04-25T07:44:20.907Z,10
2016-04-25T07:45:21.364Z,10
2016-04-25T07:46:21.382Z,10
2016-04-25T07:47:21.416Z,10
2016-04-25T07:48:21.418Z,10
2016-04-25T07:49:21.468Z,10
2016-04-25T07:50:21.471Z,10
2016-04-25T07:51:21.489Z,10
2016-04-25T07:52:20.770Z,10
2016-04-25T07:53:21.526Z,10
2016-04-25T07:54:21.545Z,10
2016-04-25T07:55:21.563Z,15
2016-04-25T07:56:21.581Z,15
2016-04-25T07:57:21.614Z,15
2016-04-25T07:58:21.915Z,15
2016-04-25T07:59:22.651Z,20
2016-04-25T08:00:21.651Z,25
2016-04-25T08:01:21.654Z,25
2016-04-25T08:02:21.704Z,35
2016-04-25T08:03:21.722Z,45
2016-04-25T08:04:21.756Z,45
2016-04-25T08:05:21.743Z,40
2016-04-25T08:06:21.777Z,25
2016-04-25T08:07:21.780Z,15
2016-04-25T08:08:21.814Z,10
2016-04-25T08:09:21.800Z,10
2016-04-25T08:10:21.819Z,15
2016-04-25T08:11:21.853Z,15
2016-04-25T08:12:21.881Z,10
2016-04-25T08:13:21.883Z,10
2016-04-25T08:14:21.948Z,5
2016-04-25T08:15:21.920Z,10
2016-04-25T08:16:21.938Z,10
2016-04-25T08:17:21.955Z,10
2016-04-25T08:18:21.990Z,10
2016-04-25T08:19:21.992Z,10
2016-04-25T08:20:22.011Z,15
2016-04-25T08:21:22.029Z,15
2016-04-25T08:22:22.095Z,15
2016-04-25T08:23:22.067Z,15
2016-04-25T08:24:22.085Z,20
2016-04-25T08:25:22.103Z,20
2016-04-25T08:26:22.122Z,30
2016-04-25T08:27:22.140Z,35
2016-04-25T08:28:22.767Z,35
2016-04-25T08:29:22.739Z,30
2016-04-25T08:30:22.195Z,30
2016-04-25T08:31:22.198Z,40
2016-04-25T08:32:22.231Z,45
2016-04-25T08:33:22.406Z,50
2016-04-25T08:34:24.178Z,45
2016-04-25T08:35:22.303Z,40
2016-04-25T08:36:22.305Z,35
2016-04-25T08:37:22.324Z,25
2016-04-25T08:38:22.341Z,20
2016-04-25T08:39:22.344Z,20
2016-04-25T08:40:22.378Z,25
2016-04-25T08:41:22.385Z,30
2016-04-25T08:42:22.435Z,40
2016-04-25T08:43:22.548Z,40
2016-04-25T08:44:23.190Z,40
2016-04-25T08:45:22.475Z,30
2016-04-25T08:46:22.509Z,30
2016-04-25T08:47:22.512Z,25
2016-04-25T08:48:22.529Z,20
2016-04-25T08:49:22.548Z,15
2016-04-25T08:50:22.567Z,20
2016-04-25T08:51:22.584Z,20
2016-04-25T08:52:22.603Z,25
2016-04-25T08:53:22.637Z,25
2016-04-25T08:54:22.655Z,30
2016-04-25T08:55:22.658Z,40
2016-04-25T08:56:22.676Z,50
2016-04-25T08:57:22.694Z,55
2016-04-25T08:58:22.603Z,55
2016-04-25T08:59:23.325Z,55
2016-04-25T09:00:22.765Z,50
2016-04-25T09:01:22.767Z,40
2016-04-25T09:02:22.786Z,35
2016-04-25T09:03:22.804Z,40
2016-04-25T09:04:22.822Z,40
2016-04-25T09:05:23.169Z,40
2016-04-25T09:06:22.860Z,30
2016-04-25T09:07:22.893Z,35
2016-04-25T09:08:22.927Z,25
2016-04-25T09:09:23.118Z,25
2016-04-25T09:10:22.980Z,25
2016-04-25T09:11:22.966Z,20
2016-04-25T09:12:22.985Z,20
2016-04-25T09:13:22.878Z,20
2016-04-25T09:14:22.974Z,25
2016-04-25T09:15:23.040Z,30
2016-04-25T09:16:23.077Z,45
2016-04-25T09:17:23.080Z,55
2016-04-25T09:18:23.114Z,55
2016-04-25T09:19:23.102Z,60
2016-04-25T09:20:23.135Z,55
2016-04-25T09:21:23.154Z,50
2016-04-25T09:22:23.172Z,35
2016-04-25T09:23:23.191Z,25
2016-04-25T09:24:23.208Z,20
2016-04-25T09:25:23.227Z,25
2016-04-25T09:26:23.698Z,25
2016-04-25T09:27:23.263Z,30
2016-04-25T09:28:23.157Z,35
2016-04-25T09:29:25.597Z,40
2016-04-25T09:30:22.584Z,40
2016-04-25T09:31:23.368Z,45
2016-04-25T09:32:23.354Z,50
2016-04-25T09:33:23.390Z,55
2016-04-25T09:34:23.439Z,55
2016-04-25T09:35:23.425Z,55
2016-04-25T09:36:23.475Z,55
2016-04-25T09:37:23.462Z,50
2016-04-25T09:38:23.512Z,55
2016-04-25T09:39:24.139Z,60
2016-04-25T09:40:23.533Z,50
2016-04-25T09:41:23.551Z,50
2016-04-25T09:42:23.569Z,50
2016-04-25T09:43:23.588Z,55
2016-04-25T09:44:24.919Z,55
2016-04-25T09:45:23.624Z,55
2016-04-25T09:46:23.658Z,60
2016-04-25T09:47:23.661Z,60
2016-04-25T09:48:23.680Z,50
2016-04-25T09:49:25.025Z,50
2016-04-25T09:50:22.982Z,40
2016-04-25T09:51:23.750Z,35
2016-04-25T09:52:23.768Z,40
2016-04-25T09:53:23.786Z,35
2016-04-25T09:54:23.804Z,30
2016-04-25T09:55:23.838Z,35
2016-04-25T09:56:23.404Z,35
2016-04-25T09:57:23.891Z,30
2016-04-25T09:58:23.893Z,25
2016-04-25T09:59:22.787Z,15
2016-04-25T10:00:23.946Z,15
2016-04-25T10:01:23.980Z,15
2016-04-25T10:02:24.014Z,10
2016-04-25T10:03:24.017Z,15
2016-04-25T10:04:24.034Z,20
2016-04-25T10:05:24.053Z,25
2016-04-25T10:06:24.071Z,35
2016-04-25T10:07:24.074Z,40
2016-04-25T10:08:24.108Z,45
2016-04-25T10:09:24.033Z,50
2016-04-25T10:10:24.192Z,55
2016-04-25T10:11:24.164Z,60
2016-04-25T10:12:24.197Z,55
2016-04-25T10:13:24.214Z,60
2016-04-25T10:14:26.640Z,60
2016-04-25T10:15:24.253Z,55
2016-04-25T10:16:24.286Z,50
2016-04-25T10:17:24.289Z,50
2016-04-25T10:18:24.338Z,55
2016-04-25T10:19:24.341Z,60
2016-04-25T10:20:24.359Z,70
2016-04-25T10:21:24.378Z,55
2016-04-25T10:22:24.396Z,45
2016-04-25T10:23:24.413Z,40
2016-04-25T10:24:24.432Z,30
2016-04-25T10:25:24.451Z,20
2016-04-25T10:26:24.485Z,15
2016-04-25T10:27:24.503Z,15
2016-04-25T10:28:24.521Z,10
2016-04-25T10:29:27.368Z,10
2016-04-25T10:30:24.527Z,10
2016-04-25T10:31:24.739Z,10
2016-04-25T10:32:24.632Z,10
2016-04-25T10:33:24.477Z,10
2016-04-25T10:34:25.456Z,20
2016-04-25T10:35:34.262Z,35
2016-04-25T10:36:24.699Z,40
2016-04-25T10:37:24.701Z,45
2016-04-25T10:38:24.736Z,40
2016-04-25T10:39:24.754Z,30
2016-04-25T10:40:24.788Z,30
2016-04-25T10:41:24.807Z,40
2016-04-25T10:42:24.840Z,45
2016-04-25T10:43:24.858Z,40
2016-04-25T10:44:25.423Z,35
2016-04-25T10:45:24.911Z,40
2016-04-25T10:46:24.898Z,40
2016-04-25T10:47:24.931Z,35
2016-04-25T10:48:24.966Z,25
2016-04-25T10:49:26.328Z,20
2016-04-25T10:50:25.003Z,20
2016-04-25T10:51:25.036Z,25
2016-04-25T10:52:25.039Z,25
2016-04-25T10:53:25.088Z,25
2016-04-25T10:54:25.091Z,25
2016-04-25T10:55:25.140Z,30
2016-04-25T10:56:25.160Z,35
2016-04-25T10:57:25.208Z,45
2016-04-25T10:58:25.227Z,55
2016-04-25T10:59:26.698Z,60
2016-04-25T11:00:25.217Z,45
2016-04-25T11:01:25.282Z,60
2016-04-25T11:02:25.285Z,80
2016-04-25T11:03:25.318Z,70
2016-04-25T11:04:25.321Z,55
2016-04-25T11:05:25.324Z,25
2016-04-25T11:06:25.357Z,20
2016-04-25T11:07:25.392Z,15
2016-04-25T11:08:25.379Z,15
2016-04-25T11:09:25.413Z,20
2016-04-25T11:10:25.431Z,40
2016-04-25T11:11:25.465Z,65
2016-04-25T11:12:25.468Z,65
2016-04-25T11:13:25.501Z,55
2016-04-25T11:14:25.910Z,45
2016-04-25T11:15:25.539Z,45
2016-04-25T11:16:25.556Z,40
2016-04-25T11:17:25.591Z,40
2016-04-25T11:18:25.594Z,45
2016-04-25T11:19:25.628Z,45
2016-04-25T11:20:25.645Z,45
2016-04-25T11:21:25.664Z,45
2016-04-25T11:22:25.683Z,60
2016-04-25T11:23:25.747Z,65
2016-04-25T11:24:25.875Z,55
2016-04-25T11:25:25.752Z,45
2016-04-25T11:26:25.771Z,35
2016-04-25T11:27:25.774Z,35
2016-04-25T11:28:25.808Z,35
2016-04-25T11:29:25.702Z,35
2016-04-25T11:30:25.876Z,35
2016-04-25T11:31:25.879Z,40
2016-04-25T11:32:25.897Z,45
2016-04-25T11:33:25.930Z,55
2016-04-25T11:34:25.949Z,50
2016-04-25T11:35:25.982Z,40
2016-04-25T11:36:25.985Z,30
2016-04-25T11:37:26.020Z,25
2016-04-25T11:38:26.053Z,30
2016-04-25T11:39:26.056Z,40
2016-04-25T11:40:33.405Z,40
2016-04-25T11:41:26.108Z,50
2016-04-25T11:42:25.986Z,40
2016-04-25T11:43:26.145Z,35
2016-04-25T11:44:26.366Z,35
2016-04-25T11:45:26.197Z,35
2016-04-25T11:46:26.215Z,45
2016-04-25T11:47:26.567Z,55
2016-04-25T11:48:26.261Z,50
2016-04-25T11:49:26.296Z,40
2016-04-25T11:50:26.142Z,35
2016-04-25T11:51:26.380Z,40
2016-04-25T11:52:26.351Z,55
2016-04-25T11:53:26.374Z,40
2016-04-25T11:54:26.392Z,35
2016-04-25T11:55:26.410Z,30
2016-04-25T11:56:26.913Z,35
2016-04-25T11:57:26.463Z,35
2016-04-25T11:58:26.513Z,40
2016-04-25T11:59:27.218Z,20
2016-04-25T12:00:26.549Z,25
2016-04-25T12:01:26.551Z,40
2016-04-25T12:02:26.586Z,60
2016-04-25T12:03:26.604Z,65
2016-04-25T12:04:26.623Z,55
2016-04-25T12:05:26.640Z,40
2016-04-25T12:06:26.675Z,40
2016-04-25T12:07:26.692Z,30
2016-04-25T12:08:26.711Z,25
2016-04-25T12:09:26.730Z,20
2016-04-25T12:10:26.764Z,20
2016-04-25T12:11:26.766Z,25
2016-04-25T12:12:26.800Z,30
2016-04-25T12:13:26.834Z,30
2016-04-25T12:14:27.743Z,30
2016-04-25T12:15:26.871Z,25
2016-04-25T12:16:26.888Z,25
2016-04-25T12:17:26.922Z,30
2016-04-25T12:18:26.941Z,40
2016-04-25T12:19:26.991Z,55
2016-04-25T12:20:26.994Z,55
2016-04-25T12:21:27.012Z,50
2016-04-25T12:22:26.311Z,45
2016-04-25T12:23:27.064Z,40
2016-04-25T12:24:27.098Z,35
2016-04-25T12:25:27.116Z,35
2016-04-25T12:26:27.166Z,30
2016-04-25T12:27:27.168Z,35
2016-04-25T12:28:27.187Z,45
2016-04-25T12:29:27.284Z,50
2016-04-25T12:30:27.083Z,50
2016-04-25T12:31:27.242Z,50
2016-04-25T12:32:27.260Z,50
2016-04-25T12:33:27.279Z,60
2016-04-25T12:34:27.312Z,55
2016-04-25T12:35:26.643Z,40
2016-04-25T12:36:27.208Z,40
2016-04-25T12:37:27.226Z,40
2016-04-25T12:38:27.401Z,50
2016-04-25T12:39:27.419Z,55
2016-04-25T12:40:27.438Z,55
2016-04-25T12:41:27.472Z,60
2016-04-25T12:42:27.522Z,70
2016-04-25T12:43:27.524Z,60
2016-04-25T12:44:28.370Z,50
2016-04-25T12:45:27.561Z,40
2016-04-25T12:46:27.579Z,45
2016-04-25T12:47:27.598Z,45
2016-04-25T12:48:27.631Z,45
2016-04-25T12:49:27.524Z,40
2016-04-25T12:50:27.684Z,50
2016-04-25T12:51:27.702Z,45
2016-04-25T12:52:27.735Z,50
2016-04-25T12:53:27.738Z,50
2016-04-25T12:54:27.616Z,45
2016-04-25T12:55:27.790Z,45
2016-04-25T12:56:27.815Z,40
2016-04-25T12:57:27.848Z,35
2016-04-25T12:58:27.882Z,25
2016-04-25T12:59:27.854Z,20
2016-04-25T13:00:27.903Z,20
2016-04-25T13:01:27.921Z,25
2016-04-25T13:02:27.971Z,40
2016-04-25T13:03:27.989Z,40
2016-04-25T13:04:27.992Z,45
2016-04-25T13:05:28.026Z,45
2016-04-25T13:06:28.091Z,40
2016-04-25T13:07:28.062Z,45
2016-04-25T13:08:28.300Z,55
2016-04-25T13:09:28.146Z,60
2016-04-25T13:10:28.164Z,65
2016-04-25T13:11:28.198Z,70
2016-04-25T13:12:28.201Z,40
2016-04-25T13:13:28.219Z,20
2016-04-25T13:14:30.424Z,30
2016-04-25T13:15:28.444Z,35
2016-04-25T13:16:28.290Z,25
2016-04-25T13:17:28.331Z,45
2016-04-25T13:18:28.334Z,50
2016-04-25T13:19:28.367Z,60
2016-04-25T13:20:28.229Z,50
2016-04-25T13:21:28.435Z,35
2016-04-25T13:22:28.453Z,35
2016-04-25T13:23:28.456Z,35
2016-04-25T13:24:28.490Z,35
2016-04-25T13:25:28.523Z,35
2016-04-25T13:26:28.526Z,35
2016-04-25T13:27:28.576Z,30
2016-04-25T13:28:28.578Z,35
2016-04-25T13:29:28.831Z,35
2016-04-25T13:30:28.631Z,30
2016-04-25T13:31:28.650Z,45
2016-04-25T13:32:28.667Z,30
2016-04-25T13:33:28.686Z,35
2016-04-25T13:34:28.736Z,45
2016-04-25T13:35:28.755Z,40
2016-04-25T13:36:28.757Z,25
2016-04-25T13:37:28.805Z,20
2016-04-25T13:38:28.841Z,25
2016-04-25T13:39:29.890Z,40
2016-04-25T13:40:28.908Z,40
2016-04-25T13:41:28.927Z,40
2016-04-25T13:42:28.960Z,35
2016-04-25T13:43:28.932Z,35
2016-04-25T13:44:29.185Z,35
2016-04-25T13:45:32.032Z,35
2016-04-25T13:46:29.034Z,35
2016-04-25T13:47:29.051Z,35
2016-04-25T13:48:29.085Z,35
2016-04-25T13:49:29.104Z,35
2016-04-25T13:50:29.138Z,35
2016-04-25T13:51:29.157Z,40
2016-04-25T13:52:29.018Z,40
2016-04-25T13:53:29.178Z,40
2016-04-25T13:54:29.226Z,35
2016-04-25T13:55:29.245Z,35
2016-04-25T13:56:29.357Z,35
2016-04-25T13:57:29.313Z,35
2016-04-25T13:58:29.362Z,40
2016-04-25T13:59:30.037Z,40
2016-04-25T14:00:29.978Z,40
2016-04-25T14:01:29.403Z,40
2016-04-25T14:02:29.425Z,40
2016-04-25T14:03:29.444Z,40
2016-04-25T14:04:29.494Z,40
2016-04-25T14:05:29.496Z,40
2016-04-25T14:06:29.436Z,40
2016-04-25T14:07:29.579Z,40
2016-04-25T14:08:29.566Z,40
2016-04-25T14:09:29.585Z,40
2016-04-25T14:10:29.635Z,35
2016-04-25T14:11:29.652Z,35
2016-04-25T14:12:29.687Z,20
2016-04-25T14:13:29.704Z,40
2016-04-25T14:14:30.739Z,25
2016-04-25T14:15:29.757Z,45
2016-04-25T14:16:29.760Z,50
2016-04-25T14:17:29.793Z,60
2016-04-25T14:18:29.820Z,70
2016-04-25T14:19:29.727Z,70
2016-04-25T14:20:29.977Z,60
2016-04-25T14:21:30.039Z,30
2016-04-25T14:22:30.134Z,15
2016-04-25T14:23:30.188Z,15
2016-04-25T14:24:30.222Z,35
2016-04-25T14:25:30.272Z,25
2016-04-25T14:26:30.322Z,35
2016-04-25T14:27:30.356Z,25